Airport View

Enter AWOS ICAO identifier for current METAR.

ex. KFNL

KTYL 251415Z AUTO 19003KT 10SM CLR 14/M01 A3025 RMK AO2

25 Sep 2020 14:16

Frequency: 119.075

Phone: 928-536-2609

Other Area AWOS: KSOW - KSJN - KJTC - KINW

TAF KINW 251120Z 2512/2612 VRB05KT P6SM SKC FM252100 25011G18KT P6SM SKC FM260230 23008KT P6SM SKC